createdAt,value
2023-10-20T00:00:16.501Z,95565.91
2023-10-20T00:02:43.893Z,95566.88
2023-10-20T00:05:10.762Z,95557.59
2023-10-20T00:07:38.090Z,95535.19
2023-10-20T00:10:05.247Z,95528.25
2023-10-20T00:12:32.295Z,95517.69
2023-10-20T00:14:58.885Z,95511.44
2023-10-20T00:17:26.007Z,95494.75
2023-10-20T00:19:52.701Z,95495.25
2023-10-20T00:22:19.332Z,95513.97
2023-10-20T00:24:46.527Z,95511.28
2023-10-20T00:27:16.668Z,95503.91
2023-10-20T00:29:45.684Z,95504.56
2023-10-20T00:32:16.325Z,95506.53
2023-10-20T00:34:42.878Z,95503.81
2023-10-20T00:37:09.434Z,95497.63
2023-10-20T00:39:36.284Z,95486.25
2023-10-20T00:42:03.506Z,95479.84
2023-10-20T00:44:30.267Z,95490.63
2023-10-20T00:46:57.766Z,95503.28
2023-10-20T00:49:24.632Z,95496.72
2023-10-20T00:51:51.766Z,95493.69
2023-10-20T00:54:18.337Z,95481.13
2023-10-20T00:56:45.279Z,95469.84
2023-10-20T00:59:12.251Z,95457.63
2023-10-20T01:01:39.283Z,95453.00
2023-10-20T01:04:07.345Z,95441.50
2023-10-20T01:06:34.443Z,95435.38
2023-10-20T01:09:01.094Z,95419.59
2023-10-20T01:11:27.759Z,95404.16
2023-10-20T01:13:54.298Z,95379.22
2023-10-20T01:16:20.955Z,95361.41
2023-10-20T01:18:47.579Z,95361.28
2023-10-20T01:21:14.225Z,95363.19
2023-10-20T01:23:41.574Z,95370.28
2023-10-20T01:26:09.197Z,95365.31
2023-10-20T01:28:35.755Z,95366.16
2023-10-20T01:31:02.371Z,95364.66
2023-10-20T01:33:28.958Z,95357.59
2023-10-20T01:35:55.567Z,95336.94
2023-10-20T01:38:22.145Z,95320.31
2023-10-20T01:40:48.671Z,95312.84
2023-10-20T01:43:15.216Z,95294.88
2023-10-20T01:45:41.881Z,95296.94
2023-10-20T01:48:08.538Z,95277.16
2023-10-20T01:50:36.103Z,95262.75
2023-10-20T01:53:03.320Z,95261.97
2023-10-20T01:55:29.883Z,95253.78
2023-10-20T01:57:56.489Z,95241.88
2023-10-20T02:00:23.662Z,95224.00
2023-10-20T02:02:50.315Z,95200.63
2023-10-20T02:05:17.019Z,95187.31
2023-10-20T02:07:44.086Z,95178.69
2023-10-20T02:10:11.409Z,95185.63
2023-10-20T02:12:38.083Z,95179.41
2023-10-20T02:15:05.828Z,95181.56
2023-10-20T02:17:34.578Z,95182.59
2023-10-20T02:20:02.659Z,95182.94
2023-10-20T02:22:29.233Z,95186.53
2023-10-20T02:24:55.777Z,95162.44
2023-10-20T02:27:22.318Z,95141.38
2023-10-20T02:29:48.797Z,95126.56
2023-10-20T02:32:15.478Z,95111.78
2023-10-20T02:34:42.276Z,95105.25
2023-10-20T02:37:13.113Z,95100.13
2023-10-20T02:39:40.159Z,95083.03
2023-10-20T02:42:07.833Z,95087.59
2023-10-20T02:44:34.605Z,95092.00
2023-10-20T02:47:01.390Z,95085.03
2023-10-20T02:49:27.968Z,95075.69
2023-10-20T02:51:54.588Z,95069.78
2023-10-20T02:54:21.307Z,95053.56
2023-10-20T02:56:47.845Z,95046.19
2023-10-20T02:59:14.442Z,95059.66
2023-10-20T03:01:40.988Z,95059.03
2023-10-20T03:04:08.085Z,95048.16
2023-10-20T03:06:34.728Z,95041.53
2023-10-20T03:09:01.411Z,95046.56
2023-10-20T03:11:28.040Z,95034.13
2023-10-20T03:13:54.613Z,95034.41
2023-10-20T03:16:21.182Z,95037.25
2023-10-20T03:18:47.788Z,95033.25
2023-10-20T03:21:14.281Z,95030.50
2023-10-20T03:23:44.862Z,95029.44
2023-10-20T03:26:13.017Z,95027.53
2023-10-20T03:28:40.661Z,95016.56
2023-10-20T03:31:08.296Z,95020.34
2023-10-20T03:33:34.862Z,95011.47
2023-10-20T03:36:02.831Z,94986.59
2023-10-20T03:38:29.699Z,94974.53
2023-10-20T03:41:07.277Z,94957.38
2023-10-20T03:43:35.584Z,94914.66
2023-10-20T03:46:02.483Z,94910.34
2023-10-20T03:48:30.674Z,94896.44
2023-10-20T03:50:57.310Z,94886.69
2023-10-20T03:53:24.467Z,94880.53
2023-10-20T03:56:06.119Z,94891.00
2023-10-20T03:58:37.201Z,94883.69
2023-10-20T04:01:04.666Z,94874.75
2023-10-20T04:03:34.337Z,94879.88
2023-10-20T04:06:02.209Z,94869.03
2023-10-20T04:08:29.059Z,94858.09
2023-10-20T04:10:59.718Z,94848.84
2023-10-20T04:13:26.735Z,94854.28
2023-10-20T04:15:56.295Z,94846.09
2023-10-20T04:18:25.756Z,94848.84
2023-10-20T04:20:58.763Z,94829.72
2023-10-20T04:23:25.783Z,94811.91
2023-10-20T04:25:58.348Z,94787.44
2023-10-20T04:28:41.869Z,94776.56
2023-10-20T04:31:27.126Z,94777.34
2023-10-20T04:34:12.086Z,94789.38
2023-10-20T04:36:56.950Z,94787.00
2023-10-20T04:39:41.954Z,94776.13
2023-10-20T04:42:20.792Z,94762.97
2023-10-20T04:44:50.092Z,94734.94
2023-10-20T04:47:26.259Z,94724.13
2023-10-20T04:50:02.891Z,94729.97
2023-10-20T04:52:48.353Z,94732.28
2023-10-20T04:55:30.077Z,94750.94
2023-10-20T04:58:08.783Z,94729.19
2023-10-20T05:00:38.580Z,94707.81
2023-10-20T05:03:05.327Z,94717.13
2023-10-20T05:05:50.352Z,94717.91
2023-10-20T05:08:19.225Z,94720.19
2023-10-20T05:10:46.416Z,94721.41
2023-10-20T05:13:13.306Z,94726.47
2023-10-20T05:15:40.273Z,94730.34
2023-10-20T05:18:10.670Z,94724.91
2023-10-20T05:20:38.431Z,94738.13
2023-10-20T05:23:06.871Z,94755.59
2023-10-20T05:25:34.027Z,94740.78
2023-10-20T05:28:03.212Z,94731.91
2023-10-20T05:30:29.892Z,94724.91
2023-10-20T05:32:56.567Z,94708.56
2023-10-20T05:35:23.141Z,94707.75
2023-10-20T05:37:50.092Z,94711.69
2023-10-20T05:40:17.120Z,94713.25
2023-10-20T05:42:43.693Z,94712.84
2023-10-20T05:45:10.979Z,94723.34
2023-10-20T05:47:39.482Z,94715.97
2023-10-20T05:50:07.412Z,94718.31
2023-10-20T05:52:36.719Z,94733.06
2023-10-20T05:55:04.593Z,94721.41
2023-10-20T05:57:31.664Z,94737.34
2023-10-20T06:00:01.117Z,94738.88
2023-10-20T06:02:29.220Z,94753.63
2023-10-20T06:04:56.115Z,94780.75
2023-10-20T06:07:22.866Z,94807.94
2023-10-20T06:09:50.803Z,94819.97
2023-10-20T06:12:18.037Z,94849.06
2023-10-20T06:14:44.816Z,94858.34
2023-10-20T06:17:11.796Z,94884.34
2023-10-20T06:19:38.441Z,94894.88
2023-10-20T06:22:06.646Z,94908.47
2023-10-20T06:24:34.519Z,94908.09
2023-10-20T06:27:04.191Z,94911.97
2023-10-20T06:29:31.335Z,94914.34
2023-10-20T06:32:12.838Z,94924.47
2023-10-20T06:34:42.999Z,94923.00
2023-10-20T06:37:09.838Z,94924.56
2023-10-20T06:39:38.688Z,94941.66
2023-10-20T06:42:10.684Z,94960.31
2023-10-20T06:44:37.586Z,94964.94
2023-10-20T06:47:04.122Z,94956.06
2023-10-20T06:49:30.835Z,94959.16
2023-10-20T06:51:57.352Z,94977.09
2023-10-20T06:54:23.844Z,94968.94
2023-10-20T06:56:50.394Z,94992.25
2023-10-20T06:59:16.999Z,95000.84
2023-10-20T07:01:45.437Z,95010.53
2023-10-20T07:04:12.192Z,95029.63
2023-10-20T07:06:39.029Z,95037.81
2023-10-20T07:09:23.653Z,95038.19
2023-10-20T07:11:50.937Z,95052.91
2023-10-20T07:14:17.516Z,95029.22
2023-10-20T07:16:44.177Z,95022.59
2023-10-20T07:19:11.780Z,95018.78
2023-10-20T07:21:38.630Z,95029.66
2023-10-20T07:24:05.472Z,95031.97
2023-10-20T07:26:32.263Z,95029.28
2023-10-20T07:28:58.840Z,95042.13
2023-10-20T07:31:27.611Z,95047.56
2023-10-20T07:33:54.800Z,95045.22
2023-10-20T07:36:21.423Z,95050.22
2023-10-20T07:38:48.159Z,95055.75
2023-10-20T07:41:17.456Z,95043.28
2023-10-20T07:43:44.108Z,95053.03
2023-10-20T07:46:18.125Z,95060.03
2023-10-20T07:48:44.858Z,95060.44
2023-10-20T07:51:12.660Z,95067.06
2023-10-20T07:53:39.462Z,95068.63
2023-10-20T07:56:09.139Z,95077.19
2023-10-20T07:58:35.723Z,95079.91
2023-10-20T08:01:02.406Z,95081.53
2023-10-20T08:03:29.381Z,95084.19
2023-10-20T08:05:56.886Z,95087.38
2023-10-20T08:08:23.988Z,95095.25
2023-10-20T08:10:51.018Z,95099.16
2023-10-20T08:13:19.445Z,95096.72
2023-10-20T08:15:46.238Z,95109.94
2023-10-20T08:18:13.659Z,95123.16
2023-10-20T08:20:40.799Z,95131.19
2023-10-20T08:23:07.360Z,95129.22
2023-10-20T08:25:38.129Z,95130.63
2023-10-20T08:28:05.947Z,95134.59
2023-10-20T08:30:32.566Z,95133.81
2023-10-20T08:33:00.550Z,95131.63
2023-10-20T08:35:27.447Z,95147.66
2023-10-20T08:37:54.083Z,95140.34
2023-10-20T08:43:03.738Z,95164.38
2023-10-20T08:45:33.860Z,95176.94
2023-10-20T08:48:03.143Z,95180.53
2023-10-20T08:50:32.971Z,95183.72
2023-10-20T08:53:02.421Z,95186.84
2023-10-20T08:55:28.968Z,95188.50
2023-10-20T08:57:55.650Z,95184.78
2023-10-20T09:00:22.254Z,95198.75
2023-10-20T09:02:49.617Z,95195.69
2023-10-20T09:05:23.388Z,95194.13
2023-10-20T09:07:57.301Z,95211.25
2023-10-20T09:10:24.476Z,95212.78
2023-10-20T09:12:51.371Z,95215.91
2023-10-20T09:15:18.236Z,95229.91
2023-10-20T09:17:46.106Z,95236.94
2023-10-20T09:20:13.390Z,95244.34
2023-10-20T09:22:40.057Z,95246.66
2023-10-20T09:25:13.090Z,95253.66
2023-10-20T09:27:39.712Z,95249.84
2023-10-20T09:30:12.270Z,95248.66
2023-10-20T09:32:39.833Z,95263.13
2023-10-20T09:35:07.276Z,95267.41
2023-10-20T09:37:37.338Z,95276.38
2023-10-20T09:40:13.842Z,95282.97
2023-10-20T09:43:07.874Z,95280.72
2023-10-20T09:45:44.916Z,95281.91
2023-10-20T09:48:19.941Z,95286.97
2023-10-20T09:50:52.037Z,95296.34
2023-10-20T09:53:19.444Z,95292.44
2023-10-20T09:55:48.637Z,95293.63
2023-10-20T09:58:25.880Z,95293.97
2023-10-20T10:00:52.661Z,95301.75
2023-10-20T10:03:29.781Z,95297.41
2023-10-20T10:05:57.067Z,95304.78
2023-10-20T10:08:26.051Z,95310.63
2023-10-20T10:10:52.659Z,95319.97
2023-10-20T10:13:33.003Z,95326.56
2023-10-20T10:16:11.645Z,95337.09
2023-10-20T10:18:46.285Z,95325.78
2023-10-20T10:21:28.252Z,95323.84
2023-10-20T10:24:14.745Z,95330.06
2023-10-20T10:26:53.097Z,95336.69
2023-10-20T10:29:54.953Z,95343.44
2023-10-20T10:32:23.632Z,95360.22
2023-10-20T10:34:55.696Z,95350.06
2023-10-20T10:37:38.735Z,95348.53
2023-10-20T10:40:15.407Z,95349.25
2023-10-20T10:42:43.878Z,95350.88
2023-10-20T10:45:22.095Z,95349.38
2023-10-20T10:47:49.938Z,95357.88
2023-10-20T10:50:18.240Z,95348.94
2023-10-20T10:52:44.916Z,95350.88
2023-10-20T10:55:11.468Z,95351.06
2023-10-20T10:57:39.681Z,95356.41
2023-10-20T11:00:10.466Z,95359.56
2023-10-20T11:02:37.222Z,95369.63
2023-10-20T11:05:05.006Z,95375.06
2023-10-20T11:07:32.236Z,95378.91
2023-10-20T11:09:58.759Z,95378.19
2023-10-20T11:12:25.500Z,95378.91
2023-10-20T11:14:57.394Z,95387.56
2023-10-20T11:17:25.713Z,95400.72
2023-10-20T11:19:52.415Z,95402.31
2023-10-20T11:22:18.980Z,95404.63
2023-10-20T11:24:53.616Z,95400.00
2023-10-20T11:27:20.404Z,95395.22
2023-10-20T11:29:58.554Z,95410.03
2023-10-20T11:32:28.859Z,95417.44
2023-10-20T11:34:55.550Z,95423.25
2023-10-20T11:37:22.117Z,95428.72
2023-10-20T11:39:48.762Z,95426.75
2023-10-20T11:42:15.526Z,95431.31
2023-10-20T11:44:42.174Z,95437.03
2023-10-20T11:47:08.853Z,95437.03
2023-10-20T11:49:35.350Z,95430.81
2023-10-20T11:52:03.732Z,95427.81
2023-10-20T11:54:30.357Z,95422.53
2023-10-20T11:56:56.918Z,95415.38
2023-10-20T11:59:23.496Z,95416.63
2023-10-20T12:01:50.244Z,95417.88
2023-10-20T12:04:17.462Z,95403.34
2023-10-20T12:06:45.217Z,95394.75
2023-10-20T12:09:17.872Z,95392.78
2023-10-20T12:11:46.576Z,95388.84
2023-10-20T12:14:15.254Z,95377.88
2023-10-20T12:16:43.081Z,95369.72
2023-10-20T12:19:09.778Z,95356.19
2023-10-20T12:21:36.443Z,95338.88
2023-10-20T12:24:03.255Z,95339.78
2023-10-20T12:26:29.843Z,95348.25
2023-10-20T12:28:58.129Z,95357.63
2023-10-20T12:31:27.393Z,95357.69
2023-10-20T12:33:54.190Z,95344.22
2023-10-20T12:36:22.367Z,95334.22
2023-10-20T12:38:49.262Z,95310.41
2023-10-20T12:41:16.082Z,95305.34
2023-10-20T12:43:43.284Z,95302.34
2023-10-20T12:46:13.442Z,95323.00
2023-10-20T12:48:41.324Z,95334.63
2023-10-20T12:51:12.070Z,95338.34
2023-10-20T12:53:38.913Z,95339.31
2023-10-20T12:56:06.623Z,95363.41
2023-10-20T12:58:34.096Z,95382.53
2023-10-20T13:01:01.032Z,95392.06
2023-10-20T13:03:28.042Z,95393.38
2023-10-20T13:05:55.716Z,95398.81
2023-10-20T13:08:23.431Z,95404.28
2023-10-20T13:10:50.068Z,95398.88
2023-10-20T13:13:18.046Z,95421.47
2023-10-20T13:15:45.502Z,95425.31
2023-10-20T13:18:13.743Z,95419.75
2023-10-20T13:20:41.700Z,95427.59
2023-10-20T13:23:08.319Z,95415.34
2023-10-20T13:25:35.280Z,95421.88
2023-10-20T13:28:01.941Z,95426.06
2023-10-20T13:30:28.542Z,95429.25
2023-10-20T13:32:55.119Z,95443.22
2023-10-20T13:35:23.114Z,95444.56
2023-10-20T13:37:50.856Z,95460.84
2023-10-20T13:40:17.488Z,95477.84
2023-10-20T13:42:45.377Z,95462.53
2023-10-20T13:45:13.687Z,95458.19
2023-10-20T13:47:40.585Z,95457.28
2023-10-20T13:50:10.397Z,95452.69
2023-10-20T13:52:39.632Z,95446.44
2023-10-20T13:55:20.839Z,95440.97
2023-10-20T13:57:48.780Z,95433.25
2023-10-20T14:00:18.264Z,95443.38
2023-10-20T14:02:45.021Z,95443.06
2023-10-20T14:05:13.618Z,95443.28
2023-10-20T14:07:40.117Z,95438.09
2023-10-20T14:10:07.392Z,95442.69
2023-10-20T14:12:33.910Z,95439.69
2023-10-20T14:15:00.835Z,95435.03
2023-10-20T14:17:27.511Z,95440.78
2023-10-20T14:19:54.732Z,95449.66
2023-10-20T14:22:21.286Z,95440.19
2023-10-20T14:24:47.901Z,95441.31
2023-10-20T14:27:14.366Z,95443.31
2023-10-20T14:29:41.639Z,95438.53
2023-10-20T14:32:08.477Z,95445.38
2023-10-20T14:34:36.321Z,95451.09
2023-10-20T14:37:04.508Z,95451.44
2023-10-20T14:39:31.132Z,95448.25
2023-10-20T14:41:57.644Z,95448.66
2023-10-20T14:44:24.219Z,95455.81
2023-10-20T14:46:50.742Z,95454.34
2023-10-20T14:49:17.237Z,95461.59
2023-10-20T14:51:43.793Z,95473.41
2023-10-20T14:54:14.872Z,95473.16
2023-10-20T14:56:41.653Z,95473.94
2023-10-20T14:59:08.365Z,95479.16
2023-10-20T15:01:35.106Z,95476.97
2023-10-20T15:04:14.019Z,95476.34
2023-10-20T15:06:48.323Z,95478.13
2023-10-20T15:09:15.359Z,95471.09
2023-10-20T15:11:41.918Z,95460.78
2023-10-20T15:14:09.367Z,95457.34
2023-10-20T15:16:36.015Z,95465.78
2023-10-20T15:19:02.538Z,95472.47
2023-10-20T15:21:29.566Z,95490.34
2023-10-20T15:23:56.235Z,95471.97
2023-10-20T15:26:23.080Z,95484.38
2023-10-20T15:28:49.657Z,95494.94
2023-10-20T15:31:16.206Z,95487.09
2023-10-20T15:33:43.138Z,95502.66
2023-10-20T15:36:10.923Z,95505.41
2023-10-20T15:38:38.703Z,95509.66
2023-10-20T15:41:05.528Z,95507.16
2023-10-20T15:43:32.854Z,95510.09
2023-10-20T15:46:00.515Z,95511.28
2023-10-20T15:48:27.242Z,95499.34
2023-10-20T15:50:53.974Z,95516.13
2023-10-20T15:53:20.565Z,95518.69
2023-10-20T15:55:47.506Z,95502.88
2023-10-20T15:58:16.451Z,95507.16
2023-10-20T16:00:47.777Z,95510.00
2023-10-20T16:03:18.872Z,95520.97
2023-10-20T16:05:46.921Z,95524.84
2023-10-20T16:08:13.483Z,95519.75
2023-10-20T16:10:39.956Z,95518.00
2023-10-20T16:13:06.404Z,95512.72
2023-10-20T16:15:33.626Z,95515.19
2023-10-20T16:18:00.266Z,95519.50
2023-10-20T16:20:27.315Z,95519.88
2023-10-20T16:22:53.873Z,95519.94
2023-10-20T16:25:20.415Z,95521.53
2023-10-20T16:27:46.940Z,95521.56
2023-10-20T16:30:13.565Z,95515.06
2023-10-20T16:32:41.885Z,95521.00
2023-10-20T16:35:09.363Z,95527.94
2023-10-20T16:37:36.213Z,95530.81
2023-10-20T16:40:03.063Z,95523.47
2023-10-20T16:42:29.601Z,95528.53
2023-10-20T16:44:56.634Z,95535.06
2023-10-20T16:47:23.211Z,95527.94
2023-10-20T16:49:52.128Z,95531.44
2023-10-20T16:52:18.840Z,95535.88
2023-10-20T16:54:52.042Z,95532.69
2023-10-20T16:57:19.359Z,95540.50
2023-10-20T16:59:45.973Z,95530.81
2023-10-20T17:02:12.591Z,95527.56
2023-10-20T17:04:39.116Z,95537.69
2023-10-20T17:07:06.001Z,95527.16
2023-10-20T17:09:34.419Z,95517.13
2023-10-20T17:12:01.346Z,95516.44
2023-10-20T17:14:28.829Z,95520.44
2023-10-20T17:16:55.996Z,95521.78
2023-10-20T17:19:22.678Z,95521.00
2023-10-20T17:21:49.191Z,95522.22
2023-10-20T17:24:15.864Z,95534.00
2023-10-20T17:26:42.400Z,95529.97
2023-10-20T17:29:08.952Z,95536.00
2023-10-20T17:31:35.681Z,95548.06
2023-10-20T17:34:02.538Z,95554.28
2023-10-20T17:36:29.113Z,95549.50
2023-10-20T17:38:56.014Z,95564.59
2023-10-20T17:41:22.615Z,95571.44
2023-10-20T17:43:49.127Z,95575.91
2023-10-20T17:46:18.126Z,95588.16
2023-10-20T17:48:45.229Z,95590.00
2023-10-20T17:51:12.088Z,95590.81
2023-10-20T17:53:38.709Z,95602.97
2023-10-20T17:56:06.148Z,95586.16
2023-10-20T17:58:33.275Z,95579.41
2023-10-20T18:01:10.800Z,95590.28
2023-10-20T18:03:43.628Z,95592.03
2023-10-20T18:06:15.847Z,95588.69
2023-10-20T18:08:47.385Z,95590.41
2023-10-20T18:11:18.081Z,95583.56
2023-10-20T18:13:46.199Z,95588.75
2023-10-20T18:16:18.108Z,95596.44
2023-10-20T18:18:49.454Z,95594.16
2023-10-20T18:21:19.288Z,95593.53
2023-10-20T18:23:48.026Z,95593.06
2023-10-20T18:26:15.104Z,95589.28
2023-10-20T18:28:42.178Z,95590.31
2023-10-20T18:31:14.977Z,95590.72
2023-10-20T18:33:42.236Z,95582.28
2023-10-20T18:36:09.428Z,95580.63
2023-10-20T18:38:36.027Z,95573.00
2023-10-20T18:41:04.167Z,95588.84
2023-10-20T18:43:30.935Z,95583.22
2023-10-20T18:46:00.951Z,95594.50
2023-10-20T18:48:28.176Z,95594.63
2023-10-20T18:51:07.584Z,95595.91
2023-10-20T18:53:35.924Z,95605.94
2023-10-20T18:56:03.024Z,95606.31
2023-10-20T18:58:30.246Z,95608.72
2023-10-20T19:00:57.977Z,95608.44
2023-10-20T19:03:24.857Z,95601.28
2023-10-20T19:05:51.913Z,95620.72
2023-10-20T19:08:19.302Z,95601.00
2023-10-20T19:10:46.294Z,95603.41
2023-10-20T19:13:13.170Z,95616.84
2023-10-20T19:15:39.789Z,95613.09
2023-10-20T19:18:06.511Z,95619.44
2023-10-20T19:20:33.066Z,95616.44
2023-10-20T19:23:01.037Z,95619.81
2023-10-20T19:25:27.680Z,95627.81
2023-10-20T19:27:59.494Z,95630.38
2023-10-20T19:30:25.988Z,95616.44
2023-10-20T19:32:52.699Z,95641.44
2023-10-20T19:35:19.305Z,95642.53
2023-10-20T19:37:45.783Z,95656.56
2023-10-20T19:40:15.085Z,95657.41
2023-10-20T19:42:44.038Z,95675.56
2023-10-20T19:45:11.651Z,95691.63
2023-10-20T19:47:38.542Z,95690.06
2023-10-20T19:50:05.808Z,95686.34
2023-10-20T19:52:32.379Z,95690.06
2023-10-20T19:55:01.855Z,95700.44
2023-10-20T19:57:28.421Z,95699.47
2023-10-20T19:59:55.095Z,95706.34
2023-10-20T20:02:21.676Z,95676.44
2023-10-20T20:04:48.361Z,95675.72
2023-10-20T20:07:14.874Z,95689.81
2023-10-20T20:09:41.430Z,95684.63
2023-10-20T20:12:08.070Z,95689.44
2023-10-20T20:14:34.692Z,95692.41
2023-10-20T20:17:03.045Z,95690.00
2023-10-20T20:19:29.787Z,95710.75
2023-10-20T20:21:56.280Z,95688.72
2023-10-20T20:24:22.790Z,95704.94
2023-10-20T20:26:49.390Z,95688.13
2023-10-20T20:29:15.957Z,95697.13
2023-10-20T20:31:42.563Z,95714.34
2023-10-20T20:34:10.617Z,95712.59
2023-10-20T20:36:37.291Z,95711.09
2023-10-20T20:39:05.731Z,95719.72
2023-10-20T20:41:34.680Z,95751.03
2023-10-20T20:44:01.174Z,95761.13
2023-10-20T20:46:27.850Z,95759.16
2023-10-20T20:48:54.551Z,95756.47
2023-10-20T20:51:21.159Z,95724.59
2023-10-20T20:53:47.986Z,95740.66
2023-10-20T20:56:17.027Z,95758.00
2023-10-20T20:58:43.516Z,95747.06
2023-10-20T21:01:11.396Z,95752.56
2023-10-20T21:03:44.142Z,95733.69
2023-10-20T21:06:11.403Z,95748.78
2023-10-20T21:08:38.036Z,95734.47
2023-10-20T21:11:14.233Z,95730.91
2023-10-20T21:13:43.137Z,95751.97
2023-10-20T21:16:11.234Z,95745.00
2023-10-20T21:18:38.714Z,95777.19
2023-10-20T21:21:11.794Z,95781.53
2023-10-20T21:23:38.472Z,95770.97
2023-10-20T21:26:05.074Z,95779.97
2023-10-20T21:28:31.644Z,95778.56
2023-10-20T21:31:06.278Z,95778.47
2023-10-20T21:33:33.899Z,95784.25
2023-10-20T21:36:01.227Z,95782.81
2023-10-20T21:38:27.752Z,95793.19
2023-10-20T21:41:01.595Z,95791.69
2023-10-20T21:43:28.661Z,95798.38
2023-10-20T21:45:59.537Z,95807.78
2023-10-20T21:48:26.880Z,95807.88
2023-10-20T21:51:01.431Z,95812.38
2023-10-20T21:53:30.169Z,95821.31
2023-10-20T21:56:06.006Z,95830.72
2023-10-20T21:58:38.141Z,95836.03
2023-10-20T22:01:10.143Z,95840.47
2023-10-20T22:03:39.197Z,95848.72
2023-10-20T22:06:09.525Z,95861.63
2023-10-20T22:08:36.331Z,95852.69
2023-10-20T22:11:02.873Z,95858.41
2023-10-20T22:13:29.441Z,95864.97
2023-10-20T22:15:56.826Z,95869.53
2023-10-20T22:18:23.587Z,95876.97
2023-10-20T22:20:50.266Z,95883.41
2023-10-20T22:23:19.275Z,95899.53
2023-10-20T22:25:45.898Z,95894.50
2023-10-20T22:28:12.392Z,95897.56
2023-10-20T22:30:38.923Z,95905.34
2023-10-20T22:33:05.623Z,95906.72
2023-10-20T22:35:36.535Z,95907.56
2023-10-20T22:38:03.233Z,95911.75
2023-10-20T22:40:29.817Z,95926.00
2023-10-20T22:42:56.805Z,95932.84
2023-10-20T22:45:23.294Z,95943.50
2023-10-20T22:47:52.991Z,95955.34
2023-10-20T22:50:20.405Z,95952.00
2023-10-20T22:52:50.177Z,95964.41
2023-10-20T22:55:16.736Z,95959.38
2023-10-20T22:57:43.431Z,95972.16
2023-10-20T23:00:12.811Z,95990.38
2023-10-20T23:02:41.209Z,95998.41
2023-10-20T23:05:08.990Z,96002.53
2023-10-20T23:07:35.882Z,96016.38
2023-10-20T23:10:04.553Z,96026.06
2023-10-20T23:12:34.674Z,96035.38
2023-10-20T23:15:01.867Z,96034.44
2023-10-20T23:17:28.631Z,96052.63
2023-10-20T23:19:55.806Z,96052.72
2023-10-20T23:22:22.393Z,96057.31
2023-10-20T23:24:48.948Z,96055.16
2023-10-20T23:27:15.701Z,96062.63
2023-10-20T23:29:43.157Z,96077.72
2023-10-20T23:32:09.953Z,96084.75
2023-10-20T23:34:36.736Z,96105.53
2023-10-20T23:37:06.223Z,96108.13
2023-10-20T23:39:34.416Z,96106.06
2023-10-20T23:42:05.265Z,96106.44
2023-10-20T23:44:32.381Z,96105.91
2023-10-20T23:46:58.893Z,96121.63
2023-10-20T23:49:25.597Z,96126.38
2023-10-20T23:51:52.912Z,96127.28
2023-10-20T23:54:19.620Z,96124.63
2023-10-20T23:56:46.259Z,96130.00
2023-10-20T23:59:12.772Z,96137.06
